Time;durP1;ratioP1;P1;durP2;ratioP2;P2;SDS_P1;SDS_P2;PMS_P1;PMS_P2;Temp;Humidity;BMP_temperature;BMP_pressure;BME280_temperature;BME280_humidity;BME280_pressure;Samples;Min_cycle;Max_cycle;Signal;HPM_P1;HPM_P2
2022/07/06 00:01:17;;;;;;;3.17;1.10;;;;;;;15.46;61.35;102273.69;5005365;28;20038;-77
2022/07/06 00:03:42;;;;;;;4.97;1.20;;;;;;;15.42;61.75;102278.41;4987825;28;20030;-77
2022/07/06 00:06:08;;;;;;;4.03;1.17;;;;;;;15.42;61.75;102280.19;5002393;28;20037;-76
2022/07/06 00:08:33;;;;;;;3.08;1.45;;;;;;;15.39;61.71;102276.09;5000767;28;20030;-76
2022/07/06 00:10:59;;;;;;;3.05;1.25;;;;;;;15.36;61.45;102271.97;5000762;28;20136;-76
2022/07/06 00:13:25;;;;;;;2.25;1.00;;;;;;;15.31;61.70;102270.81;4998313;28;20410;-76
2022/07/06 00:15:50;;;;;;;3.83;1.23;;;;;;;15.28;61.60;102269.31;5019292;28;20072;-77
2022/07/06 00:18:16;;;;;;;3.80;1.60;;;;;;;15.23;61.85;102268.13;4988278;28;20441;-76
2022/07/06 00:20:41;;;;;;;2.13;1.13;;;;;;;15.03;62.58;102268.31;5001296;28;20714;-76
2022/07/06 00:23:07;;;;;;;3.17;1.58;;;;;;;14.93;63.13;102268.34;4983910;28;20130;-77
2022/07/06 00:25:32;;;;;;;3.22;1.17;;;;;;;14.89;63.32;102267.00;5001517;28;20030;-76
2022/07/06 00:27:58;;;;;;;2.80;1.25;;;;;;;14.86;63.44;102274.31;5003948;28;20049;-77
2022/07/06 00:30:23;;;;;;;2.78;1.45;;;;;;;14.75;63.71;102273.59;5013694;28;20256;-76
2022/07/06 00:32:49;;;;;;;2.95;1.30;;;;;;;14.72;63.67;102268.66;5001063;28;20540;-77
2022/07/06 00:35:14;;;;;;;4.82;1.67;;;;;;;14.74;63.59;102260.66;4987564;28;20482;-77
2022/07/06 00:37:40;;;;;;;2.10;1.45;;;;;;;14.79;63.23;102267.09;5003033;28;20018;-76
2022/07/06 00:40:06;;;;;;;2.55;1.20;;;;;;;14.79;63.16;102269.69;5000467;28;20111;-77
2022/07/06 00:42:46;;;;;;;2.80;1.23;;;;;;;14.80;63.09;102265.28;5009775;28;20038;-76
2022/07/06 00:45:13;;;;;;;4.07;1.40;;;;;;;14.81;62.90;102268.75;5019974;28;20088;-76
2022/07/06 00:47:40;;;;;;;3.40;1.30;;;;;;;14.80;63.22;102273.13;5001261;28;20037;-77
2022/07/06 00:50:15;;;;;;;4.15;1.30;;;;;;;14.77;63.06;102276.88;5000787;28;20026;-76
2022/07/06 00:52:42;;;;;;;2.55;1.20;;;;;;;14.76;63.26;102269.97;5003961;28;20052;-77
2022/07/06 00:55:09;;;;;;;6.72;1.50;;;;;;;14.71;63.54;102269.63;5004714;28;20533;-76
2022/07/06 00:57:35;;;;;;;3.85;1.20;;;;;;;14.66;63.83;102281.47;5011498;28;20030;-76
2022/07/06 01:00:03;;;;;;;3.13;1.55;;;;;;;14.61;64.02;102281.91;5004427;28;20360;-76
2022/07/06 01:02:31;;;;;;;2.10;1.23;;;;;;;14.54;64.14;102286.88;5002298;28;20486;-76
2022/07/06 01:04:57;;;;;;;5.57;1.95;;;;;;;14.53;64.02;102274.78;5004695;28;20544;-76
2022/07/06 01:07:22;;;;;;;3.33;1.20;;;;;;;14.50;64.06;102275.06;5004453;28;20037;-76
2022/07/06 01:09:48;;;;;;;4.20;1.67;;;;;;;14.45;64.45;102285.13;5015855;28;20034;-76
2022/07/06 01:12:14;;;;;;;2.15;1.30;;;;;;;14.42;64.58;102282.81;4987054;28;20038;-76
2022/07/06 01:14:40;;;;;;;3.50;1.38;;;;;;;14.39;64.83;102280.47;4990178;28;20041;-76
2022/07/06 01:17:07;;;;;;;2.20;1.30;;;;;;;14.38;64.61;102281.44;5004752;28;20026;-76
2022/07/06 01:19:33;;;;;;;4.85;1.65;;;;;;;14.34;64.75;102280.09;5003522;28;20037;-76
2022/07/06 01:21:59;;;;;;;3.83;1.70;;;;;;;14.31;64.74;102270.75;5003789;28;20633;-76
2022/07/06 01:24:26;;;;;;;2.03;1.67;;;;;;;14.20;65.35;102276.16;5002672;28;20045;-76
2022/07/06 01:26:52;;;;;;;3.42;2.10;;;;;;;14.14;65.64;102274.13;5004719;28;20038;-76
2022/07/06 01:29:17;;;;;;;3.60;1.92;;;;;;;14.08;65.76;102285.16;5002721;28;20029;-76
2022/07/06 01:31:48;;;;;;;4.07;1.80;;;;;;;13.98;66.23;102290.41;5005258;28;20033;-76
2022/07/06 01:34:15;;;;;;;3.55;2.10;;;;;;;13.90;66.98;102283.31;4998654;28;20137;-76
2022/07/06 01:36:40;;;;;;;3.38;1.85;;;;;;;13.78;67.34;102284.41;5003247;28;20057;-77
2022/07/06 01:39:08;;;;;;;3.47;2.10;;;;;;;13.73;67.58;102284.00;4984698;28;20129;-76
2022/07/06 01:41:36;;;;;;;3.08;2.17;;;;;;;13.67;67.60;102277.56;5013319;28;20148;-76
2022/07/06 01:44:02;;;;;;;5.15;2.70;;;;;;;13.53;68.15;102273.63;4985422;28;20413;-76
2022/07/06 01:46:28;;;;;;;3.45;2.10;;;;;;;13.50;68.21;102271.28;4999486;28;20034;-76
2022/07/06 01:48:54;;;;;;;3.85;2.08;;;;;;;13.48;68.14;102275.81;4984225;28;20120;-75
2022/07/06 01:51:21;;;;;;;2.50;2.10;;;;;;;13.46;68.33;102271.72;5002094;28;20566;-76
2022/07/06 01:53:48;;;;;;;5.38;2.70;;;;;;;13.45;68.36;102273.50;5003432;28;20030;-76
2022/07/06 01:56:17;;;;;;;5.43;2.47;;;;;;;13.36;68.90;102272.56;4997909;28;20084;-76
2022/07/06 01:58:45;;;;;;;3.65;2.25;;;;;;;13.31;69.11;102269.53;5002540;28;20334;-75
2022/07/06 02:01:17;;;;;;;6.32;2.47;;;;;;;13.31;68.95;102269.53;5000367;28;20490;-75
2022/07/06 02:03:43;;;;;;;5.30;2.42;;;;;;;13.29;68.93;102273.22;5001381;28;20352;-76
2022/07/06 02:06:09;;;;;;;5.63;2.38;;;;;;;13.21;69.28;102272.13;5000694;28;20060;-76
2022/07/06 02:08:36;;;;;;;6.78;2.58;;;;;;;13.18;69.61;102284.59;4998467;28;20084;-76
2022/07/06 02:11:04;;;;;;;3.55;2.35;;;;;;;13.13;69.68;102273.75;5015889;28;20489;-76
2022/07/06 02:13:30;;;;;;;5.78;2.20;;;;;;;13.15;69.73;102269.25;4996909;28;20029;-76
2022/07/06 02:15:55;;;;;;;5.13;2.45;;;;;;;13.15;69.66;102272.66;4997873;28;20057;-75
2022/07/06 02:18:21;;;;;;;5.75;2.38;;;;;;;13.13;69.94;102269.38;4999664;28;20041;-76
2022/07/06 02:20:46;;;;;;;7.00;2.70;;;;;;;13.15;69.84;102272.66;4999502;28;20065;-76
2022/07/06 02:23:12;;;;;;;4.93;2.50;;;;;;;13.16;69.58;102266.47;5004382;28;20042;-76
2022/07/06 02:25:38;;;;;;;6.35;2.75;;;;;;;13.14;69.65;102267.59;4998188;28;20084;-76
2022/07/06 02:28:04;;;;;;;3.08;2.30;;;;;;;13.10;69.79;102267.03;4987006;28;20711;-76
2022/07/06 02:30:30;;;;;;;5.28;2.63;;;;;;;13.10;70.09;102268.84;5001852;28;20025;-75
2022/07/06 02:32:56;;;;;;;5.07;1.98;;;;;;;13.11;69.66;102266.09;5003352;28;20049;-76
2022/07/06 02:35:22;;;;;;;3.88;2.72;;;;;;;13.13;69.73;102263.31;4984620;28;20305;-76
2022/07/06 02:37:48;;;;;;;5.55;2.38;;;;;;;13.15;69.32;102264.03;5000987;28;20383;-76
2022/07/06 02:40:15;;;;;;;4.38;2.03;;;;;;;13.16;69.25;102269.09;5014089;28;20036;-76
2022/07/06 02:42:40;;;;;;;3.78;2.47;;;;;;;13.09;69.57;102257.59;5000103;28;20663;-76
2022/07/06 02:45:08;;;;;;;6.22;2.80;;;;;;;13.01;70.12;102254.84;4999095;28;20030;-76
2022/07/06 02:47:34;;;;;;;6.28;2.65;;;;;;;12.95;70.44;102264.00;4997209;28;20033;-75
2022/07/06 02:50:00;;;;;;;4.57;2.47;;;;;;;12.92;70.80;102266.91;4997216;28;20026;-75
2022/07/06 02:52:26;;;;;;;4.63;2.47;;;;;;;12.91;70.54;102265.25;4997846;28;20052;-76
2022/07/06 02:54:51;;;;;;;4.63;2.53;;;;;;;12.89;70.68;102268.97;4999204;28;20467;-76
2022/07/06 02:57:18;;;;;;;6.25;2.83;;;;;;;12.87;70.77;102274.28;4979828;28;20041;-76
2022/07/06 02:59:44;;;;;;;4.93;2.72;;;;;;;12.86;70.55;102277.84;5012704;28;20033;-76
2022/07/06 03:02:09;;;;;;;4.55;2.58;;;;;;;12.79;71.02;102282.78;5003130;28;20021;-76
2022/07/06 03:04:35;;;;;;;8.82;2.50;;;;;;;12.80;70.92;102287.00;5001808;28;20034;-76
2022/07/06 03:07:01;;;;;;;4.55;2.72;;;;;;;12.77;71.19;102284.69;5002726;28;20029;-76
2022/07/06 03:09:27;;;;;;;5.55;2.40;;;;;;;12.76;71.16;102283.03;4987457;28;20045;-76
2022/07/06 03:11:53;;;;;;;6.43;2.50;;;;;;;12.77;71.18;102289.06;5006268;28;20470;-76
2022/07/06 03:14:19;;;;;;;8.50;2.60;;;;;;;12.69;71.29;102288.91;5000810;28;20085;-75
2022/07/06 03:16:48;;;;;;;5.65;2.53;;;;;;;12.65;72.08;102285.75;5004908;28;20034;-76
2022/07/06 03:19:13;;;;;;;4.40;2.72;;;;;;;12.62;71.88;102284.25;5016517;28;20041;-76
2022/07/06 03:21:39;;;;;;;6.65;2.55;;;;;;;12.61;72.13;102284.38;4983462;28;20037;-75
2022/07/06 03:24:04;;;;;;;5.47;2.70;;;;;;;12.61;72.04;102290.41;4988691;28;20060;-75
2022/07/06 03:26:30;;;;;;;6.88;3.10;;;;;;;12.59;72.24;102278.50;5003405;28;20117;-75
2022/07/06 03:28:56;;;;;;;7.65;2.80;;;;;;;12.60;72.21;102286.16;4988388;28;20049;-75
2022/07/06 03:31:21;;;;;;;6.97;2.22;;;;;;;12.61;72.10;102284.38;4998383;28;20029;-76
2022/07/06 03:33:47;;;;;;;6.35;3.28;;;;;;;12.59;72.04;102284.50;5001638;28;20636;-75
2022/07/06 03:36:14;;;;;;;5.82;2.97;;;;;;;12.59;72.18;102286.28;5002036;28;20030;-76
2022/07/06 03:38:39;;;;;;;4.18;2.42;;;;;;;12.55;72.28;102296.13;5003112;28;20490;-75
2022/07/06 03:41:05;;;;;;;4.07;2.72;;;;;;;12.51;72.75;102288.72;5002204;28;20484;-75
2022/07/06 03:43:32;;;;;;;8.80;3.08;;;;;;;12.51;72.83;102296.53;5001111;28;20036;-76
2022/07/06 03:45:58;;;;;;;5.50;3.00;;;;;;;12.44;72.82;102289.25;4981735;28;20022;-76
2022/07/06 03:48:24;;;;;;;5.90;3.08;;;;;;;12.35;73.34;102286.63;5000339;28;20109;-76
2022/07/06 03:50:50;;;;;;;6.53;3.08;;;;;;;12.35;73.69;102294.44;5003098;28;20407;-76
2022/07/06 03:53:16;;;;;;;5.53;3.13;;;;;;;12.36;73.73;102296.09;4984897;28;20033;-75
2022/07/06 03:55:42;;;;;;;4.10;3.13;;;;;;;12.34;73.75;102297.97;5001554;28;20018;-76
2022/07/06 03:58:10;;;;;;;6.50;3.28;;;;;;;12.32;74.11;102292.06;5001672;28;20034;-75
2022/07/06 04:00:38;;;;;;;6.53;3.38;;;;;;;12.28;74.34;102294.13;5002373;28;20515;-76
2022/07/06 04:03:08;;;;;;;6.57;3.47;;;;;;;12.25;74.85;102299.59;5000852;28;20042;-75
2022/07/06 04:05:40;;;;;;;8.03;4.23;;;;;;;12.18;75.30;102294.06;5001806;28;20033;-76
2022/07/06 04:08:06;;;;;;;7.78;3.60;;;;;;;12.15;75.64;102291.75;5006225;28;20117;-76
2022/07/06 04:10:38;;;;;;;9.15;3.83;;;;;;;12.15;75.71;102298.72;4999354;28;20037;-76
2022/07/06 04:13:04;;;;;;;7.00;4.15;;;;;;;12.16;75.76;102297.78;5004087;28;20041;-75
2022/07/06 04:15:29;;;;;;;5.60;3.05;;;;;;;12.19;75.93;102290.53;5001485;28;20041;-76
2022/07/06 04:17:55;;;;;;;12.80;3.85;;;;;;;12.22;76.03;102295.50;5001914;28;20585;-75
2022/07/06 04:20:32;;;;;;;7.90;3.72;;;;;;;12.24;76.14;102298.78;4999312;28;20038;-75
2022/07/06 04:22:58;;;;;;;6.40;3.95;;;;;;;12.24;76.41;102303.97;4999056;28;20042;-76
2022/07/06 04:25:25;;;;;;;4.53;3.20;;;;;;;12.22;76.72;102305.88;4999456;28;20042;-76
2022/07/06 04:27:51;;;;;;;8.75;4.40;;;;;;;12.24;76.46;102297.94;4984092;28;20683;-75
2022/07/06 04:30:16;;;;;;;8.85;4.22;;;;;;;12.21;76.53;102304.22;4997575;28;20049;-76
2022/07/06 04:32:42;;;;;;;6.60;3.80;;;;;;;12.25;77.00;102297.00;4980655;28;20044;-76
2022/07/06 04:35:09;;;;;;;8.07;4.05;;;;;;;12.27;76.87;102295.09;5003153;28;20034;-74
2022/07/06 04:37:35;;;;;;;7.07;4.45;;;;;;;12.25;76.78;102300.41;4998901;28;20030;-75
2022/07/06 04:40:01;;;;;;;5.50;3.28;;;;;;;12.28;76.92;102304.50;5001326;28;20036;-76
2022/07/06 04:42:26;;;;;;;8.90;4.10;;;;;;;12.29;76.87;102293.19;4982986;28;20037;-76
2022/07/06 04:44:52;;;;;;;5.47;3.65;;;;;;;12.30;77.15;102294.84;5000413;28;20121;-75
2022/07/06 04:47:18;;;;;;;11.13;4.43;;;;;;;12.34;77.09;102295.38;5001476;28;20498;-76
2022/07/06 04:49:44;;;;;;;9.15;3.63;;;;;;;12.32;77.21;102292.91;4998401;28;20084;-75
2022/07/06 04:52:12;;;;;;;5.15;3.80;;;;;;;12.34;76.81;102292.75;4984073;28;20069;-75
2022/07/06 04:54:38;;;;;;;5.10;3.28;;;;;;;12.40;76.55;102293.06;5000527;28;20069;-76
2022/07/06 04:57:04;;;;;;;7.10;3.95;;;;;;;12.49;76.69;102286.28;5013180;28;20025;-76
2022/07/06 04:59:30;;;;;;;10.93;3.92;;;;;;;12.51;76.58;102296.53;4998872;28;20045;-75
2022/07/06 05:01:58;;;;;;;6.65;4.15;;;;;;;12.53;76.42;102289.44;5000146;28;20030;-76
2022/07/06 05:04:24;;;;;;;10.60;4.05;;;;;;;12.54;76.44;102291.88;4981607;28;20045;-76
2022/07/06 05:06:50;;;;;;;7.30;3.85;;;;;;;12.68;76.10;102293.31;5017903;28;20026;-76
2022/07/06 05:09:15;;;;;;;9.13;3.72;;;;;;;12.83;76.02;102291.97;4999396;28;20045;-76
2022/07/06 05:11:44;;;;;;;9.10;3.72;;;;;;;12.85;76.17;102297.03;4984379;28;20100;-75
2022/07/06 05:14:11;;;;;;;7.13;4.47;;;;;;;12.85;75.64;102297.84;5001319;28;20018;-75
2022/07/06 05:16:36;;;;;;;9.48;4.55;;;;;;;12.83;75.98;102297.16;5003013;28;20037;-75
2022/07/06 05:19:02;;;;;;;7.28;3.78;;;;;;;12.82;75.39;102298.09;5000819;28;20029;-76
2022/07/06 05:21:28;;;;;;;5.45;3.92;;;;;;;12.88;75.52;102301.94;4999414;28;20064;-76
2022/07/06 05:23:54;;;;;;;6.05;3.53;;;;;;;12.89;75.36;102300.19;4997316;28;20125;-76
2022/07/06 05:26:20;;;;;;;10.38;4.30;;;;;;;12.93;75.39;102298.97;4980632;28;20048;-76
2022/07/06 05:28:46;;;;;;;6.53;3.58;;;;;;;13.00;75.00;102306.09;5014898;28;20402;-76
2022/07/06 05:31:14;;;;;;;7.22;4.03;;;;;;;13.07;75.31;102310.75;4996490;28;20049;-76
2022/07/06 05:33:40;;;;;;;7.25;3.72;;;;;;;13.23;74.91;102308.44;4999755;28;20026;-76
2022/07/06 05:36:06;;;;;;;8.88;3.80;;;;;;;13.52;74.13;102313.66;4999147;28;20087;-77
2022/07/06 05:38:32;;;;;;;9.98;4.43;;;;;;;13.65;73.80;102308.16;4999811;28;20248;-77
2022/07/06 05:40:58;;;;;;;11.02;4.10;;;;;;;13.90;73.45;102311.97;5010621;28;20033;-75
2022/07/06 05:43:24;;;;;;;7.60;3.17;;;;;;;14.16;72.89;102309.53;4981947;28;20084;-76
2022/07/06 05:45:50;;;;;;;8.40;3.70;;;;;;;14.20;72.61;102299.66;4980885;28;20040;-75
2022/07/06 05:51:03;;;;;;;5.35;3.03;;;;;;;14.38;71.97;102307.56;5013639;28;20380;-75
2022/07/06 05:53:28;;;;;;;12.35;4.07;;;;;;;14.48;71.22;102308.31;4997076;28;20022;-74
2022/07/06 05:55:56;;;;;;;5.20;3.50;;;;;;;14.67;70.69;102315.25;5000115;28;20064;-74
2022/07/06 05:58:22;;;;;;;11.15;3.17;;;;;;;14.94;70.46;102309.19;4999901;28;20042;-78
2022/07/06 06:00:48;;;;;;;7.55;3.25;;;;;;;15.25;68.95;102311.41;4995761;28;20026;-75
2022/07/06 06:03:17;;;;;;;6.82;2.75;;;;;;;15.45;68.32;102319.13;4995842;28;20034;-76
2022/07/06 06:05:43;;;;;;;4.50;3.33;;;;;;;15.46;67.89;102323.34;4998917;28;20202;-75
2022/07/06 06:08:11;;;;;;;7.78;3.40;;;;;;;15.50;67.52;102327.31;5000198;28;20034;-77
2022/07/06 06:10:36;;;;;;;10.82;4.82;;;;;;;15.66;66.53;102324.00;4993896;28;20037;-75
2022/07/06 06:13:06;;;;;;;6.13;3.13;;;;;;;15.67;67.08;102328.25;4996594;28;20502;-75
2022/07/06 06:15:33;;;;;;;7.93;3.30;;;;;;;15.65;67.37;102324.97;5013412;28;20040;-75
2022/07/06 06:17:58;;;;;;;11.55;3.83;;;;;;;15.70;67.75;102326.16;4998159;28;20042;-74
2022/07/06 06:20:24;;;;;;;8.05;2.92;;;;;;;15.80;67.00;102320.84;5001032;28;20254;-74
2022/07/06 06:22:51;;;;;;;7.85;3.42;;;;;;;15.89;67.11;102316.50;4995222;28;20671;-74
2022/07/06 06:25:20;;;;;;;5.55;3.05;;;;;;;16.38;65.86;102318.53;4995822;28;20057;-75
2022/07/06 06:27:45;;;;;;;6.00;2.63;;;;;;;16.76;63.75;102319.00;5010624;28;20072;-75
2022/07/06 06:30:12;;;;;;;6.03;2.80;;;;;;;16.93;62.79;102313.69;4982930;28;20037;-75
2022/07/06 06:32:38;;;;;;;6.47;2.53;;;;;;;17.24;61.97;102315.66;4994896;28;20026;-77
2022/07/06 06:35:05;;;;;;;4.93;2.40;;;;;;;17.16;61.88;102309.59;4998399;28;20030;-76
2022/07/06 06:37:30;;;;;;;5.10;2.13;;;;;;;17.27;62.04;102322.38;4978459;28;20033;-75
2022/07/06 06:39:56;;;;;;;4.10;1.75;;;;;;;17.44;61.34;102318.78;4995916;28;20033;-74
2022/07/06 06:42:21;;;;;;;3.88;1.75;;;;;;;17.57;60.49;102320.88;4996925;28;20037;-75
2022/07/06 06:44:48;;;;;;;7.32;1.95;;;;;;;17.59;60.57;102320.72;5012701;28;20434;-76
2022/07/06 06:47:14;;;;;;;9.63;2.55;;;;;;;17.84;60.02;102311.03;4997479;28;20034;-75
2022/07/06 06:49:39;;;;;;;4.90;1.50;;;;;;;17.61;59.50;102311.72;4996171;28;20042;-73
2022/07/06 06:52:05;;;;;;;47.95;23.02;;;;;;;17.41;59.64;102324.34;4997992;28;20052;-76
2022/07/06 06:54:30;;;;;;;2.80;1.88;;;;;;;17.46;59.41;102329.94;5000042;28;20029;-75
2022/07/06 06:56:56;;;;;;;6.05;1.25;;;;;;;17.81;58.59;102334.97;4998783;28;20760;-75
2022/07/06 06:59:21;;;;;;;4.53;1.40;;;;;;;18.65;57.24;102330.13;4997427;28;20045;-74
2022/07/06 07:01:47;;;;;;;4.32;0.93;;;;;;;19.37;54.46;102323.72;5018639;28;20036;-75
2022/07/06 07:04:12;;;;;;;4.30;0.80;;;;;;;19.50;53.48;102317.88;5001675;28;20038;-75
2022/07/06 07:06:38;;;;;;;2.20;0.90;;;;;;;19.59;53.58;102322.88;4999509;28;20034;-75
2022/07/06 07:09:04;;;;;;;1.63;0.90;;;;;;;19.99;52.22;102320.84;4999993;28;20035;-75
2022/07/06 07:11:30;;;;;;;8.13;2.45;;;;;;;20.34;51.55;102318.47;4996681;28;20030;-78
2022/07/06 07:13:56;;;;;;;8.07;1.45;;;;;;;20.36;50.35;102319.09;5000636;28;20034;-76
2022/07/06 07:16:21;;;;;;;2.35;0.70;;;;;;;20.37;51.30;102318.06;4999924;28;20103;-76
2022/07/06 07:18:47;;;;;;;2.05;0.98;;;;;;;20.02;50.52;102325.75;5002306;28;20017;-74
2022/07/06 07:21:12;;;;;;;3.15;0.75;;;;;;;19.71;51.40;102317.19;5002331;28;20034;-75
2022/07/06 07:23:37;;;;;;;3.53;0.32;;;;;;;20.06;51.15;102318.31;4979891;28;20700;-76
2022/07/06 07:26:03;;;;;;;1.70;0.90;;;;;;;19.68;51.60;102314.88;5002320;28;20038;-74
2022/07/06 07:28:28;;;;;;;4.30;0.63;;;;;;;18.97;52.21;102328.31;5001305;28;20487;-74
2022/07/06 07:30:54;;;;;;;2.97;0.85;;;;;;;18.62;53.78;102331.25;4997262;28;20041;-74
2022/07/06 07:33:19;;;;;;;2.83;0.52;;;;;;;18.69;55.47;102334.03;5001627;28;20235;-75
2022/07/06 07:35:45;;;;;;;1.85;0.47;;;;;;;19.14;54.29;102324.56;5001022;28;20046;-75
2022/07/06 07:38:10;;;;;;;3.08;0.60;;;;;;;19.17;53.82;102326.03;5000337;28;20394;-75
2022/07/06 07:40:36;;;;;;;1.75;0.65;;;;;;;18.73;54.59;102330.06;4987092;28;20506;-75
2022/07/06 07:43:01;;;;;;;4.60;0.75;;;;;;;18.33;55.22;102331.91;4997391;28;20041;-75
2022/07/06 07:45:27;;;;;;;2.63;0.70;;;;;;;17.87;55.26;102336.94;5003788;28;20030;-75
2022/07/06 07:47:52;;;;;;;2.45;0.70;;;;;;;17.51;56.85;102332.03;5019747;28;20406;-75
2022/07/06 07:50:18;;;;;;;3.78;0.90;;;;;;;17.46;57.85;102335.16;5004804;28;20046;-77
2022/07/06 07:52:44;;;;;;;2.45;0.63;;;;;;;17.51;58.17;102347.78;5001631;28;20037;-76
2022/07/06 07:55:09;;;;;;;4.45;0.90;;;;;;;17.55;58.79;102343.84;5001822;28;20116;-75
2022/07/06 07:57:35;;;;;;;1.05;0.70;;;;;;;17.69;58.71;102345.00;5003170;28;20500;-75
2022/07/06 08:00:01;;;;;;;3.67;0.88;;;;;;;17.48;59.46;102348.94;5005591;28;20038;-75
2022/07/06 08:02:37;;;;;;;3.60;0.93;;;;;;;17.45;59.51;102340.56;5004642;28;20159;-76
2022/07/06 08:05:03;;;;;;;8.27;0.73;;;;;;;17.40;59.53;102341.03;4999233;28;20037;-75
2022/07/06 08:07:29;;;;;;;2.83;0.60;;;;;;;17.29;60.02;102344.84;4988935;28;20092;-75
2022/07/06 08:09:54;;;;;;;5.63;0.70;;;;;;;17.41;59.94;102340.06;4996403;28;20022;-75
2022/07/06 08:12:20;;;;;;;3.03;0.68;;;;;;;17.49;59.99;102340.06;5004686;28;20045;-75
2022/07/06 08:14:46;;;;;;;2.85;0.50;;;;;;;17.49;59.27;102340.06;5002171;28;20030;-75
2022/07/06 08:17:11;;;;;;;1.85;0.60;;;;;;;17.55;59.73;102337.78;5003585;28;20030;-75
2022/07/06 08:19:37;;;;;;;3.50;0.70;;;;;;;17.64;59.09;102337.59;5002869;28;20536;-76
2022/07/06 08:22:06;;;;;;;1.65;0.60;;;;;;;17.88;58.00;102334.16;5008661;23;20206;-71
2022/07/06 08:24:34;;;;;;;0.75;0.40;;;;;;;17.92;57.90;102333.84;4998855;28;20038;-71
2022/07/06 08:26:59;;;;;;;4.50;0.57;;;;;;;18.06;57.37;102341.84;5001666;28;20408;-71
2022/07/06 08:29:24;;;;;;;2.70;0.77;;;;;;;18.34;56.37;102335.34;5000002;28;20030;-72
2022/07/06 08:31:50;;;;;;;1.27;0.73;;;;;;;18.29;54.94;102338.47;5005109;28;20029;-71
2022/07/06 08:34:15;;;;;;;2.03;0.60;;;;;;;18.09;55.37;102335.44;5003180;28;20021;-71
2022/07/06 08:37:07;;;;;;;2.90;0.68;;;;;;;18.05;56.10;102329.69;5061842;23;20055;-76
2022/07/06 08:39:57;;;;;;;1.30;0.60;;;;;;;18.60;54.87;102321.94;5032248;28;20098;-76
2022/07/06 08:42:53;;;;;;;4.80;1.05;;;;;;;19.19;52.48;102327.50;5055024;28;20511;-76
2022/07/06 08:45:45;;;;;;;2.03;0.88;;;;;;;18.94;52.75;102329.47;5046705;28;20036;-78
2022/07/06 08:48:38;;;;;;;1.33;0.60;;;;;;;18.69;52.38;102326.16;5066820;28;20059;-76
2022/07/06 08:51:30;;;;;;;1.25;0.70;;;;;;;18.61;53.58;102328.78;5053642;28;20478;-77
2022/07/06 08:54:22;;;;;;;6.10;1.00;;;;;;;19.65;50.93;102321.34;5063155;28;20044;-78
2022/07/06 08:56:48;;;;;;;7.10;0.90;;;;;;;20.52;48.19;102322.50;5042788;28;20623;-76
2022/07/06 08:59:15;;;;;;;4.95;0.80;;;;;;;21.29;46.49;102313.97;5050222;28;20033;-77
2022/07/06 09:01:41;;;;;;;3.25;0.70;;;;;;;22.07;43.53;102311.22;5070960;28;20028;-77
2022/07/06 09:04:08;;;;;;;4.65;0.70;;;;;;;22.43;42.58;102318.09;5068338;28;20035;-76
2022/07/06 09:06:33;;;;;;;1.08;0.90;;;;;;;22.46;38.58;102315.06;5066663;28;20102;-76
2022/07/06 09:09:04;;;;;;;1.27;0.60;;;;;;;22.80;39.98;102315.97;5045665;28;20036;-77
2022/07/06 09:11:30;;;;;;;6.85;1.08;;;;;;;23.33;38.95;102316.00;5036051;28;20532;-80
2022/07/06 09:13:56;;;;;;;1.98;0.80;;;;;;;22.92;39.56;102314.38;5071955;28;20033;-78
2022/07/06 09:16:29;;;;;;;1.23;0.65;;;;;;;22.32;41.36;102308.94;5050591;28;20032;-80
2022/07/06 09:18:55;;;;;;;3.13;1.08;;;;;;;21.46;41.48;102313.72;5072331;28;20040;-79
2022/07/06 09:21:36;;;;;;;3.08;0.80;;;;;;;20.80;39.92;102315.53;5048267;28;20040;-79
2022/07/06 09:24:02;;;;;;;1.67;0.90;;;;;;;20.54;42.00;102312.59;5067635;28;20094;-79
2022/07/06 09:26:28;;;;;;;5.13;1.63;;;;;;;20.61;43.83;102309.06;5048904;28;20078;-80
2022/07/06 09:28:56;;;;;;;1.65;0.60;;;;;;;20.70;44.44;102303.66;5032813;28;20717;-76
2022/07/06 09:31:21;;;;;;;4.70;0.80;;;;;;;20.87;44.24;102306.88;5044595;28;20572;-77
2022/07/06 09:33:57;;;;;;;2.53;0.75;;;;;;;20.52;42.74;102314.59;5065408;28;20028;-80
2022/07/06 09:36:49;;;;;;;0.80;0.50;;;;;;;20.64;42.56;102304.41;5042801;28;20040;-79
2022/07/06 09:39:25;;;;;;;2.45;0.90;;;;;;;20.78;43.93;102306.19;5059563;28;20032;-77
2022/07/06 09:41:56;;;;;;;2.70;0.82;;;;;;;20.66;42.70;102307.69;5047100;28;20040;-77
2022/07/06 09:44:24;;;;;;;1.42;0.90;;;;;;;20.72;42.59;102307.78;5053438;28;20040;-78
2022/07/06 09:46:51;;;;;;;3.58;0.80;;;;;;;20.77;42.29;102307.19;5046639;28;20024;-78
2022/07/06 09:49:20;;;;;;;2.65;0.70;;;;;;;20.90;43.35;102309.97;5049019;28;20032;-77
2022/07/06 09:51:49;;;;;;;0.70;0.60;;;;;;;20.93;43.67;102306.97;5045752;28;20036;-78
2022/07/06 09:54:15;;;;;;;2.10;0.50;;;;;;;20.92;43.08;102313.22;5047880;28;20181;-80
2022/07/06 09:56:43;;;;;;;3.20;0.60;;;;;;;21.32;40.45;102310.94;5064319;28;20123;-82
2022/07/06 09:59:12;;;;;;;0.90;0.60;;;;;;;21.70;40.58;102310.63;5062751;28;20028;-79
2022/07/06 10:01:38;;;;;;;3.45;0.80;;;;;;;21.95;40.10;102313.59;5044675;28;20043;-78
2022/07/06 10:04:08;;;;;;;2.92;0.80;;;;;;;22.19;39.87;102313.31;5066507;28;20040;-79
2022/07/06 10:06:35;;;;;;;4.90;0.80;;;;;;;22.40;41.87;102309.78;5046834;28;20107;-77
2022/07/06 10:09:00;;;;;;;3.08;0.60;;;;;;;22.74;41.25;102312.28;5038202;28;20430;-79
2022/07/06 10:11:28;;;;;;;2.85;0.68;;;;;;;22.45;41.05;102309.97;5043569;28;20032;-79
2022/07/06 10:13:56;;;;;;;2.63;0.45;;;;;;;22.44;41.24;102317.09;5047882;28;20039;-80
2022/07/06 10:16:25;;;;;;;6.78;1.58;;;;;;;22.22;40.98;102326.94;5063232;28;20071;-77
2022/07/06 10:18:55;;;;;;;2.17;0.63;;;;;;;22.03;41.52;102315.28;5059712;28;20710;-78
2022/07/06 10:21:24;;;;;;;1.52;0.70;;;;;;;22.17;41.24;102310.88;5044835;28;20428;-78
2022/07/06 10:23:51;;;;;;;3.00;0.73;;;;;;;22.07;39.89;102305.94;5045703;28;20036;-79
2022/07/06 10:26:18;;;;;;;4.88;0.95;;;;;;;22.18;39.30;102301.94;5048763;28;20029;-79
2022/07/06 10:28:44;;;;;;;3.38;0.60;;;;;;;22.28;38.34;102306.88;5046475;28;20029;-79
2022/07/06 10:31:10;;;;;;;4.97;0.80;;;;;;;22.40;38.00;102300.00;5041859;28;20070;-78
2022/07/06 10:33:38;;;;;;;2.72;0.60;;;;;;;22.16;38.90;102298.66;5048230;28;20494;-78
2022/07/06 10:36:04;;;;;;;1.70;0.70;;;;;;;22.23;39.35;102299.53;5048227;28;20050;-78
2022/07/06 10:38:32;;;;;;;3.90;1.23;;;;;;;22.75;39.64;102302.53;5047712;28;20039;-78
2022/07/06 10:41:06;;;;;;;3.88;0.77;;;;;;;22.87;40.21;102294.84;5046631;28;20407;-79
2022/07/06 10:43:42;;;;;;;2.38;0.60;;;;;;;23.43;40.31;102301.53;5050976;28;20055;-78
2022/07/06 10:46:17;;;;;;;3.72;0.82;;;;;;;23.36;40.47;102303.38;5054904;28;20451;-78
2022/07/06 10:48:47;;;;;;;3.08;0.60;;;;;;;23.70;41.17;102299.69;5034121;28;20032;-77
2022/07/06 10:51:23;;;;;;;3.10;1.00;;;;;;;23.43;38.25;102296.25;5058772;28;20158;-77
2022/07/06 10:53:59;;;;;;;4.90;0.90;;;;;;;23.35;38.49;102292.00;5047673;28;20024;-78
2022/07/06 10:56:44;;;;;;;4.57;0.70;;;;;;;24.01;39.73;102296.34;5051318;28;20036;-77
2022/07/06 10:59:16;;;;;;;2.40;0.70;;;;;;;23.59;38.81;102287.09;5029735;28;20882;-80
2022/07/06 11:02:17;;;;;;;1.75;0.82;;;;;;;23.35;39.30;102286.69;5043306;28;20041;-77
2022/07/06 11:04:44;;;;;;;4.03;0.73;;;;;;;23.26;40.34;102285.28;5052792;28;20041;-78
2022/07/06 11:07:12;;;;;;;2.55;1.13;;;;;;;22.71;39.80;102296.81;5046823;28;20779;-79
2022/07/06 11:09:38;;;;;;;7.07;1.10;;;;;;;22.90;40.25;102295.22;5040120;28;20029;-80
2022/07/06 11:12:18;;;;;;;3.42;1.10;;;;;;;23.24;39.74;102288.13;5012011;28;20044;-79
2022/07/06 11:14:44;;;;;;;1.33;0.60;;;;;;;23.73;39.60;102282.56;5019036;28;20042;-79
2022/07/06 11:17:11;;;;;;;5.18;0.70;;;;;;;23.84;37.63;102285.41;5043441;28;20080;-78
2022/07/06 11:19:37;;;;;;;2.33;0.70;;;;;;;23.65;38.92;102286.25;5041214;28;20120;-79
2022/07/06 11:22:07;;;;;;;4.65;0.77;;;;;;;23.78;38.86;102283.56;5050963;28;20036;-77
2022/07/06 11:24:34;;;;;;;2.53;1.10;;;;;;;23.76;37.83;102277.66;5047086;28;20033;-80
2022/07/06 11:27:01;;;;;;;0.93;0.52;;;;;;;23.96;37.13;102279.44;5030784;28;20106;-79
2022/07/06 11:29:28;;;;;;;5.18;0.70;;;;;;;23.71;38.96;102275.66;5048741;28;20492;-79